sensor_id;sensor_type;location;lat;lon;timestamp;temperature;humidity
69598;SHT31;70000;51.176;-115.568;2024-03-08T00:01:56;0.15;88.36
69598;SHT31;70000;51.176;-115.568;2024-03-08T00:04:27;0.16;88.21
69598;SHT31;70000;51.176;-115.568;2024-03-08T00:06:56;0.15;88.09
69598;SHT31;70000;51.176;-115.568;2024-03-08T00:09:28;0.12;88.40
69598;SHT31;70000;51.176;-115.568;2024-03-08T00:11:59;0.11;88.47
69598;SHT31;70000;51.176;-115.568;2024-03-08T00:14:29;0.13;88.62
69598;SHT31;70000;51.176;-115.568;2024-03-08T00:16:58;0.11;88.31
69598;SHT31;70000;51.176;-115.568;2024-03-08T00:19:27;0.09;88.60
69598;SHT31;70000;51.176;-115.568;2024-03-08T00:21:56;0.04;88.33
69598;SHT31;70000;51.176;-115.568;2024-03-08T00:24:25;-0.02;88.01
69598;SHT31;70000;51.176;-115.568;2024-03-08T00:26:55;-0.07;88.44
69598;SHT31;70000;51.176;-115.568;2024-03-08T00:29:24;-0.13;88.35
69598;SHT31;70000;51.176;-115.568;2024-03-08T00:31:53;-0.20;88.01
69598;SHT31;70000;51.176;-115.568;2024-03-08T00:34:22;-0.27;88.03
69598;SHT31;70000;51.176;-115.568;2024-03-08T00:36:51;-0.34;88.01
69598;SHT31;70000;51.176;-115.568;2024-03-08T00:42:27;-0.48;87.81
69598;SHT31;70000;51.176;-115.568;2024-03-08T00:44:57;-0.57;87.54
69598;SHT31;70000;51.176;-115.568;2024-03-08T00:50:45;-0.69;88.05
69598;SHT31;70000;51.176;-115.568;2024-03-08T00:53:14;-0.74;88.04
69598;SHT31;70000;51.176;-115.568;2024-03-08T00:55:44;-0.81;87.87
69598;SHT31;70000;51.176;-115.568;2024-03-08T00:58:14;-0.87;88.01
69598;SHT31;70000;51.176;-115.568;2024-03-08T01:01:03;-0.94;87.36
69598;SHT31;70000;51.176;-115.568;2024-03-08T01:03:32;-1.04;87.05
69598;SHT31;70000;51.176;-115.568;2024-03-08T01:06:02;-1.15;86.74
69598;SHT31;70000;51.176;-115.568;2024-03-08T01:08:32;-1.24;87.27
69598;SHT31;70000;51.176;-115.568;2024-03-08T01:11:01;-1.30;87.41
69598;SHT31;70000;51.176;-115.568;2024-03-08T01:13:31;-1.36;87.59
69598;SHT31;70000;51.176;-115.568;2024-03-08T01:16:00;-1.41;87.61
69598;SHT31;70000;51.176;-115.568;2024-03-08T01:18:29;-1.48;87.43
69598;SHT31;70000;51.176;-115.568;2024-03-08T01:20:58;-1.59;87.17
69598;SHT31;70000;51.176;-115.568;2024-03-08T01:30:43;-1.84;87.45
69598;SHT31;70000;51.176;-115.568;2024-03-08T01:33:13;-1.88;87.63
69598;SHT31;70000;51.176;-115.568;2024-03-08T01:35:42;-1.94;87.63
69598;SHT31;70000;51.176;-115.568;2024-03-08T01:38:11;-2.00;87.56
69598;SHT31;70000;51.176;-115.568;2024-03-08T01:40:43;-2.09;87.13
69598;SHT31;70000;51.176;-115.568;2024-03-08T01:43:30;-2.23;85.81
69598;SHT31;70000;51.176;-115.568;2024-03-08T01:45:59;-2.36;85.96
69598;SHT31;70000;51.176;-115.568;2024-03-08T01:48:29;-2.41;86.70
69598;SHT31;70000;51.176;-115.568;2024-03-08T01:50:59;-2.43;87.16
69598;SHT31;70000;51.176;-115.568;2024-03-08T01:53:29;-2.46;87.21
69598;SHT31;70000;51.176;-115.568;2024-03-08T01:56:02;-2.50;87.27
69598;SHT31;70000;51.176;-115.568;2024-03-08T01:58:33;-2.55;87.17
69598;SHT31;70000;51.176;-115.568;2024-03-08T02:01:04;-2.57;87.43
69598;SHT31;70000;51.176;-115.568;2024-03-08T02:03:34;-2.63;87.25
69598;SHT31;70000;51.176;-115.568;2024-03-08T02:06:03;-2.70;87.02
69598;SHT31;70000;51.176;-115.568;2024-03-08T02:08:36;-2.75;87.13
69598;SHT31;70000;51.176;-115.568;2024-03-08T02:11:06;-2.80;87.10
69598;SHT31;70000;51.176;-115.568;2024-03-08T02:13:36;-2.87;86.89
69598;SHT31;70000;51.176;-115.568;2024-03-08T02:16:05;-2.92;87.26
69598;SHT31;70000;51.176;-115.568;2024-03-08T02:18:36;-2.96;87.27
69598;SHT31;70000;51.176;-115.568;2024-03-08T02:21:07;-3.01;87.20
69598;SHT31;70000;51.176;-115.568;2024-03-08T02:23:36;-3.06;87.36
69598;SHT31;70000;51.176;-115.568;2024-03-08T02:26:08;-3.10;87.44
69598;SHT31;70000;51.176;-115.568;2024-03-08T02:28:37;-3.12;87.61
69598;SHT31;70000;51.176;-115.568;2024-03-08T02:31:07;-3.19;87.29
69598;SHT31;70000;51.176;-115.568;2024-03-08T02:33:36;-3.28;87.18
69598;SHT31;70000;51.176;-115.568;2024-03-08T02:39:44;-3.42;87.27
69598;SHT31;70000;51.176;-115.568;2024-03-08T02:42:14;-3.49;87.24
69598;SHT31;70000;51.176;-115.568;2024-03-08T02:45:03;-3.59;87.13
69598;SHT31;70000;51.176;-115.568;2024-03-08T02:47:35;-3.65;87.18
69598;SHT31;70000;51.176;-115.568;2024-03-08T02:50:05;-3.70;87.13
69598;SHT31;70000;51.176;-115.568;2024-03-08T02:52:37;-3.79;86.87
69598;SHT31;70000;51.176;-115.568;2024-03-08T02:55:06;-3.86;86.59
69598;SHT31;70000;51.176;-115.568;2024-03-08T02:57:39;-3.95;86.47
69598;SHT31;70000;51.176;-115.568;2024-03-08T03:03:17;-4.00;87.11
69598;SHT31;70000;51.176;-115.568;2024-03-08T03:05:55;-4.11;86.82
69598;SHT31;70000;51.176;-115.568;2024-03-08T03:08:24;-4.19;86.89
69598;SHT31;70000;51.176;-115.568;2024-03-08T03:10:53;-4.27;86.73
69598;SHT31;70000;51.176;-115.568;2024-03-08T03:13:24;-4.34;86.80
69598;SHT31;70000;51.176;-115.568;2024-03-08T03:15:53;-4.37;86.92
69598;SHT31;70000;51.176;-115.568;2024-03-08T03:18:22;-4.42;87.02
69598;SHT31;70000;51.176;-115.568;2024-03-08T03:20:51;-4.44;87.08
69598;SHT31;70000;51.176;-115.568;2024-03-08T03:23:20;-4.45;87.25
69598;SHT31;70000;51.176;-115.568;2024-03-08T03:25:50;-4.47;87.25
69598;SHT31;70000;51.176;-115.568;2024-03-08T03:28:20;-4.51;87.15
69598;SHT31;70000;51.176;-115.568;2024-03-08T03:30:51;-4.51;87.30
69598;SHT31;70000;51.176;-115.568;2024-03-08T03:33:20;-4.56;87.05
69598;SHT31;70000;51.176;-115.568;2024-03-08T03:35:49;-4.55;87.24
69598;SHT31;70000;51.176;-115.568;2024-03-08T03:38:20;-4.57;87.21
69598;SHT31;70000;51.176;-115.568;2024-03-08T03:40:51;-4.63;87.08
69598;SHT31;70000;51.176;-115.568;2024-03-08T03:43:27;-4.71;86.89
69598;SHT31;70000;51.176;-115.568;2024-03-08T03:45:56;-4.77;86.88
69598;SHT31;70000;51.176;-115.568;2024-03-08T03:48:26;-4.77;87.13
69598;SHT31;70000;51.176;-115.568;2024-03-08T03:50:55;-4.81;86.97
69598;SHT31;70000;51.176;-115.568;2024-03-08T03:53:24;-4.92;86.75
69598;SHT31;70000;51.176;-115.568;2024-03-08T03:55:53;-4.94;86.87
69598;SHT31;70000;51.176;-115.568;2024-03-08T03:58:22;-4.97;87.01
69598;SHT31;70000;51.176;-115.568;2024-03-08T04:00:51;-4.96;87.19
69598;SHT31;70000;51.176;-115.568;2024-03-08T04:03:20;-5.03;86.69
69598;SHT31;70000;51.176;-115.568;2024-03-08T04:05:49;-5.07;86.62
69598;SHT31;70000;51.176;-115.568;2024-03-08T04:08:18;-5.11;86.63
69598;SHT31;70000;51.176;-115.568;2024-03-08T04:10:50;-5.10;86.78
69598;SHT31;70000;51.176;-115.568;2024-03-08T04:13:19;-5.15;86.74
69598;SHT31;70000;51.176;-115.568;2024-03-08T04:15:48;-5.23;86.47
69598;SHT31;70000;51.176;-115.568;2024-03-08T04:18:17;-5.26;86.60
69598;SHT31;70000;51.176;-115.568;2024-03-08T04:20:46;-5.30;86.56
69598;SHT31;70000;51.176;-115.568;2024-03-08T04:23:17;-5.31;86.69
69598;SHT31;70000;51.176;-115.568;2024-03-08T04:25:47;-5.31;86.80
69598;SHT31;70000;51.176;-115.568;2024-03-08T04:28:16;-5.32;86.80
69598;SHT31;70000;51.176;-115.568;2024-03-08T04:30:45;-5.35;86.81
69598;SHT31;70000;51.176;-115.568;2024-03-08T04:33:14;-5.39;86.71
69598;SHT31;70000;51.176;-115.568;2024-03-08T04:35:45;-5.44;86.69
69598;SHT31;70000;51.176;-115.568;2024-03-08T04:38:15;-5.47;86.74
69598;SHT31;70000;51.176;-115.568;2024-03-08T04:40:44;-5.51;86.71
69598;SHT31;70000;51.176;-115.568;2024-03-08T04:43:13;-5.55;86.62
69598;SHT31;70000;51.176;-115.568;2024-03-08T04:45:42;-5.56;86.79
69598;SHT31;70000;51.176;-115.568;2024-03-08T04:48:11;-5.56;86.86
69598;SHT31;70000;51.176;-115.568;2024-03-08T04:50:40;-5.57;86.93
69598;SHT31;70000;51.176;-115.568;2024-03-08T04:53:10;-5.64;86.56
69598;SHT31;70000;51.176;-115.568;2024-03-08T04:58:46;-5.75;86.63
69598;SHT31;70000;51.176;-115.568;2024-03-08T05:01:16;-5.78;86.53
69598;SHT31;70000;51.176;-115.568;2024-03-08T05:03:47;-5.80;86.58
69598;SHT31;70000;51.176;-115.568;2024-03-08T05:06:18;-5.84;86.40
69598;SHT31;70000;51.176;-115.568;2024-03-08T05:08:48;-5.88;86.39
69598;SHT31;70000;51.176;-115.568;2024-03-08T05:11:19;-5.86;86.61
69598;SHT31;70000;51.176;-115.568;2024-03-08T05:14:08;-5.91;86.43
69598;SHT31;70000;51.176;-115.568;2024-03-08T05:16:38;-5.92;86.53
69598;SHT31;70000;51.176;-115.568;2024-03-08T05:19:07;-5.95;86.56
69598;SHT31;70000;51.176;-115.568;2024-03-08T05:21:36;-5.99;86.42
69598;SHT31;70000;51.176;-115.568;2024-03-08T05:24:06;-6.07;86.30
69598;SHT31;70000;51.176;-115.568;2024-03-08T05:26:38;-6.11;86.42
69598;SHT31;70000;51.176;-115.568;2024-03-08T05:29:08;-6.13;86.41
69598;SHT31;70000;51.176;-115.568;2024-03-08T05:31:47;-6.16;86.38
69598;SHT31;70000;51.176;-115.568;2024-03-08T05:34:20;-6.17;86.12
69598;SHT31;70000;51.176;-115.568;2024-03-08T05:36:50;-6.17;86.19
69598;SHT31;70000;51.176;-115.568;2024-03-08T05:39:39;-6.15;86.23
69598;SHT31;70000;51.176;-115.568;2024-03-08T05:42:08;-6.13;86.33
69598;SHT31;70000;51.176;-115.568;2024-03-08T05:48:12;-6.19;86.13
69598;SHT31;70000;51.176;-115.568;2024-03-08T05:50:44;-6.20;86.25
69598;SHT31;70000;51.176;-115.568;2024-03-08T05:53:13;-6.23;86.19
69598;SHT31;70000;51.176;-115.568;2024-03-08T05:55:43;-6.25;86.27
69598;SHT31;70000;51.176;-115.568;2024-03-08T05:58:13;-6.26;86.22
69598;SHT31;70000;51.176;-115.568;2024-03-08T06:00:42;-6.26;86.16
69598;SHT31;70000;51.176;-115.568;2024-03-08T06:03:18;-6.28;86.22
69598;SHT31;70000;51.176;-115.568;2024-03-08T06:05:49;-6.30;86.17
69598;SHT31;70000;51.176;-115.568;2024-03-08T06:08:22;-6.33;86.15
69598;SHT31;70000;51.176;-115.568;2024-03-08T06:10:57;-6.38;86.01
69598;SHT31;70000;51.176;-115.568;2024-03-08T06:13:26;-6.42;86.03
69598;SHT31;70000;51.176;-115.568;2024-03-08T06:15:58;-6.41;86.26
69598;SHT31;70000;51.176;-115.568;2024-03-08T06:22:53;-6.53;85.93
69598;SHT31;70000;51.176;-115.568;2024-03-08T06:25:22;-6.55;86.08
69598;SHT31;70000;51.176;-115.568;2024-03-08T06:27:52;-6.55;86.13
69598;SHT31;70000;51.176;-115.568;2024-03-08T06:30:21;-6.55;86.26
69598;SHT31;70000;51.176;-115.568;2024-03-08T06:32:50;-6.57;86.18
69598;SHT31;70000;51.176;-115.568;2024-03-08T06:35:20;-6.60;86.15
69598;SHT31;70000;51.176;-115.568;2024-03-08T06:37:49;-6.64;86.11
69598;SHT31;70000;51.176;-115.568;2024-03-08T06:40:18;-6.69;86.10
69598;SHT31;70000;51.176;-115.568;2024-03-08T06:42:47;-6.72;86.18
69598;SHT31;70000;51.176;-115.568;2024-03-08T06:45:16;-6.74;86.12
69598;SHT31;70000;51.176;-115.568;2024-03-08T06:47:48;-6.80;86.01
69598;SHT31;70000;51.176;-115.568;2024-03-08T06:50:18;-6.84;86.13
69598;SHT31;70000;51.176;-115.568;2024-03-08T06:52:47;-6.86;86.17
69598;SHT31;70000;51.176;-115.568;2024-03-08T06:55:21;-6.88;86.19
69598;SHT31;70000;51.176;-115.568;2024-03-08T06:57:50;-6.93;86.01
69598;SHT31;70000;51.176;-115.568;2024-03-08T07:00:20;-6.96;86.07
69598;SHT31;70000;51.176;-115.568;2024-03-08T07:02:54;-7.01;85.95
69598;SHT31;70000;51.176;-115.568;2024-03-08T07:05:29;-7.09;85.85
69598;SHT31;70000;51.176;-115.568;2024-03-08T07:08:03;-7.10;86.13
69598;SHT31;70000;51.176;-115.568;2024-03-08T07:10:34;-7.10;86.16
69598;SHT31;70000;51.176;-115.568;2024-03-08T07:13:04;-7.18;85.96
69598;SHT31;70000;51.176;-115.568;2024-03-08T07:15:34;-7.20;86.01
69598;SHT31;70000;51.176;-115.568;2024-03-08T07:18:03;-7.22;85.95
69598;SHT31;70000;51.176;-115.568;2024-03-08T07:20:33;-7.23;85.91
69598;SHT31;70000;51.176;-115.568;2024-03-08T07:23:03;-7.26;85.95
69598;SHT31;70000;51.176;-115.568;2024-03-08T07:25:32;-7.29;86.10
69598;SHT31;70000;51.176;-115.568;2024-03-08T07:28:02;-7.35;86.02
69598;SHT31;70000;51.176;-115.568;2024-03-08T07:30:39;-7.39;85.97
69598;SHT31;70000;51.176;-115.568;2024-03-08T07:33:11;-7.42;86.04
69598;SHT31;70000;51.176;-115.568;2024-03-08T07:35:41;-7.46;85.99
69598;SHT31;70000;51.176;-115.568;2024-03-08T07:38:12;-7.48;86.05
69598;SHT31;70000;51.176;-115.568;2024-03-08T07:40:44;-7.50;86.03
69598;SHT31;70000;51.176;-115.568;2024-03-08T07:43:14;-7.49;86.06
69598;SHT31;70000;51.176;-115.568;2024-03-08T07:45:44;-7.51;86.06
69598;SHT31;70000;51.176;-115.568;2024-03-08T07:48:13;-7.53;86.04
69598;SHT31;70000;51.176;-115.568;2024-03-08T07:50:42;-7.58;85.87
69598;SHT31;70000;51.176;-115.568;2024-03-08T07:53:11;-7.61;85.93
69598;SHT31;70000;51.176;-115.568;2024-03-08T07:55:40;-7.61;86.04
69598;SHT31;70000;51.176;-115.568;2024-03-08T07:58:12;-7.64;85.87
69598;SHT31;70000;51.176;-115.568;2024-03-08T08:00:42;-7.66;86.04
69598;SHT31;70000;51.176;-115.568;2024-03-08T08:03:11;-7.67;86.08
69598;SHT31;70000;51.176;-115.568;2024-03-08T08:05:41;-7.66;86.19
69598;SHT31;70000;51.176;-115.568;2024-03-08T08:08:11;-7.69;86.06
69598;SHT31;70000;51.176;-115.568;2024-03-08T08:10:40;-7.72;86.03
69598;SHT31;70000;51.176;-115.568;2024-03-08T08:13:09;-7.75;85.99
69598;SHT31;70000;51.176;-115.568;2024-03-08T08:15:39;-7.78;86.02
69598;SHT31;70000;51.176;-115.568;2024-03-08T08:18:08;-7.80;86.01
69598;SHT31;70000;51.176;-115.568;2024-03-08T08:20:37;-7.79;86.04
69598;SHT31;70000;51.176;-115.568;2024-03-08T08:23:07;-7.79;86.07
69598;SHT31;70000;51.176;-115.568;2024-03-08T08:25:37;-7.81;85.97
69598;SHT31;70000;51.176;-115.568;2024-03-08T08:28:06;-7.85;85.89
69598;SHT31;70000;51.176;-115.568;2024-03-08T08:30:36;-7.89;85.81
69598;SHT31;70000;51.176;-115.568;2024-03-08T08:33:05;-7.89;85.86
69598;SHT31;70000;51.176;-115.568;2024-03-08T08:35:38;-7.91;85.86
69598;SHT31;70000;51.176;-115.568;2024-03-08T08:38:08;-7.96;85.78
69598;SHT31;70000;51.176;-115.568;2024-03-08T08:40:37;-7.99;85.79
69598;SHT31;70000;51.176;-115.568;2024-03-08T08:43:06;-7.99;85.81
69598;SHT31;70000;51.176;-115.568;2024-03-08T08:45:35;-7.99;85.92
69598;SHT31;70000;51.176;-115.568;2024-03-08T08:48:04;-7.98;85.96
69598;SHT31;70000;51.176;-115.568;2024-03-08T08:50:34;-8.02;85.85
69598;SHT31;70000;51.176;-115.568;2024-03-08T08:53:04;-8.11;85.54
69598;SHT31;70000;51.176;-115.568;2024-03-08T08:55:34;-8.17;85.50
69598;SHT31;70000;51.176;-115.568;2024-03-08T08:58:04;-8.23;85.39
69598;SHT31;70000;51.176;-115.568;2024-03-08T09:00:34;-8.25;85.52
69598;SHT31;70000;51.176;-115.568;2024-03-08T09:03:03;-8.26;85.30
69598;SHT31;70000;51.176;-115.568;2024-03-08T09:05:34;-8.27;85.50
69598;SHT31;70000;51.176;-115.568;2024-03-08T09:08:07;-8.28;85.45
69598;SHT31;70000;51.176;-115.568;2024-03-08T09:10:37;-8.30;85.54
69598;SHT31;70000;51.176;-115.568;2024-03-08T09:13:07;-8.30;85.55
69598;SHT31;70000;51.176;-115.568;2024-03-08T09:15:48;-8.31;85.62
69598;SHT31;70000;51.176;-115.568;2024-03-08T09:18:18;-8.34;85.43
69598;SHT31;70000;51.176;-115.568;2024-03-08T09:20:47;-8.35;85.55
69598;SHT31;70000;51.176;-115.568;2024-03-08T09:23:19;-8.32;85.75
69598;SHT31;70000;51.176;-115.568;2024-03-08T09:25:48;-8.34;85.64
69598;SHT31;70000;51.176;-115.568;2024-03-08T09:28:19;-8.33;85.74
69598;SHT31;70000;51.176;-115.568;2024-03-08T09:30:48;-8.32;85.79
69598;SHT31;70000;51.176;-115.568;2024-03-08T09:33:25;-8.37;85.55
69598;SHT31;70000;51.176;-115.568;2024-03-08T09:35:58;-8.45;85.14
69598;SHT31;70000;51.176;-115.568;2024-03-08T09:38:29;-8.48;85.28
69598;SHT31;70000;51.176;-115.568;2024-03-08T09:40:59;-8.50;85.22
69598;SHT31;70000;51.176;-115.568;2024-03-08T09:43:29;-8.48;85.53
69598;SHT31;70000;51.176;-115.568;2024-03-08T09:46:00;-8.46;85.74
69598;SHT31;70000;51.176;-115.568;2024-03-08T09:48:31;-8.47;85.74
69598;SHT31;70000;51.176;-115.568;2024-03-08T09:51:03;-8.53;85.54
69598;SHT31;70000;51.176;-115.568;2024-03-08T09:53:33;-8.61;85.19
69598;SHT31;70000;51.176;-115.568;2024-03-08T09:56:03;-8.64;85.24
69598;SHT31;70000;51.176;-115.568;2024-03-08T09:58:33;-8.64;85.26
69598;SHT31;70000;51.176;-115.568;2024-03-08T10:01:03;-8.67;84.96
69598;SHT31;70000;51.176;-115.568;2024-03-08T10:03:33;-8.69;84.95
69598;SHT31;70000;51.176;-115.568;2024-03-08T10:06:03;-8.79;84.65
69598;SHT31;70000;51.176;-115.568;2024-03-08T10:08:34;-8.82;85.05
69598;SHT31;70000;51.176;-115.568;2024-03-08T10:11:04;-8.82;85.30
69598;SHT31;70000;51.176;-115.568;2024-03-08T10:13:33;-8.82;85.40
69598;SHT31;70000;51.176;-115.568;2024-03-08T10:16:03;-8.82;85.29
69598;SHT31;70000;51.176;-115.568;2024-03-08T10:18:32;-8.83;85.15
69598;SHT31;70000;51.176;-115.568;2024-03-08T10:21:05;-8.85;84.68
69598;SHT31;70000;51.176;-115.568;2024-03-08T10:23:42;-8.86;84.90
69598;SHT31;70000;51.176;-115.568;2024-03-08T10:26:13;-8.86;84.93
69598;SHT31;70000;51.176;-115.568;2024-03-08T10:28:49;-8.87;84.86
69598;SHT31;70000;51.176;-115.568;2024-03-08T10:31:23;-8.94;84.35
69598;SHT31;70000;51.176;-115.568;2024-03-08T10:33:52;-9.01;84.56
69598;SHT31;70000;51.176;-115.568;2024-03-08T10:36:22;-9.02;84.87
69598;SHT31;70000;51.176;-115.568;2024-03-08T10:39:34;-9.00;85.16
69598;SHT31;70000;51.176;-115.568;2024-03-08T10:42:04;-8.99;85.23
69598;SHT31;70000;51.176;-115.568;2024-03-08T10:44:43;-9.02;84.98
69598;SHT31;70000;51.176;-115.568;2024-03-08T10:47:27;-9.03;85.27
69598;SHT31;70000;51.176;-115.568;2024-03-08T10:52:39;-9.10;84.99
69598;SHT31;70000;51.176;-115.568;2024-03-08T10:55:08;-9.15;85.00
69598;SHT31;70000;51.176;-115.568;2024-03-08T10:58:00;-9.19;85.09
69598;SHT31;70000;51.176;-115.568;2024-03-08T11:00:31;-9.17;85.24
69598;SHT31;70000;51.176;-115.568;2024-03-08T11:03:00;-9.16;85.36
69598;SHT31;70000;51.176;-115.568;2024-03-08T11:05:40;-9.15;85.24
69598;SHT31;70000;51.176;-115.568;2024-03-08T11:08:19;-9.18;84.99
69598;SHT31;70000;51.176;-115.568;2024-03-08T11:10:54;-9.16;85.09
69598;SHT31;70000;51.176;-115.568;2024-03-08T11:13:36;-9.11;85.18
69598;SHT31;70000;51.176;-115.568;2024-03-08T11:16:56;-9.05;85.34
69598;SHT31;70000;51.176;-115.568;2024-03-08T11:21:40;-8.93;85.56
69598;SHT31;70000;51.176;-115.568;2024-03-08T11:24:12;-8.89;85.60
69598;SHT31;70000;51.176;-115.568;2024-03-08T11:26:45;-8.87;85.45
69598;SHT31;70000;51.176;-115.568;2024-03-08T11:34:49;-8.96;84.89
69598;SHT31;70000;51.176;-115.568;2024-03-08T11:37:19;-8.96;85.00
69598;SHT31;70000;51.176;-115.568;2024-03-08T11:39:51;-8.98;84.85
69598;SHT31;70000;51.176;-115.568;2024-03-08T11:42:26;-9.01;84.93
69598;SHT31;70000;51.176;-115.568;2024-03-08T11:44:55;-8.97;85.31
69598;SHT31;70000;51.176;-115.568;2024-03-08T11:47:25;-8.96;85.27
69598;SHT31;70000;51.176;-115.568;2024-03-08T11:49:55;-8.98;85.21
69598;SHT31;70000;51.176;-115.568;2024-03-08T11:54:58;-9.03;84.88
69598;SHT31;70000;51.176;-115.568;2024-03-08T11:57:27;-9.05;84.97
69598;SHT31;70000;51.176;-115.568;2024-03-08T11:59:57;-9.05;84.96
69598;SHT31;70000;51.176;-115.568;2024-03-08T12:02:36;-9.02;85.18
69598;SHT31;70000;51.176;-115.568;2024-03-08T12:05:10;-8.98;85.20
69598;SHT31;70000;51.176;-115.568;2024-03-08T12:07:44;-8.93;85.39
69598;SHT31;70000;51.176;-115.568;2024-03-08T12:10:25;-8.91;85.26
69598;SHT31;70000;51.176;-115.568;2024-03-08T12:12:57;-8.92;85.09
69598;SHT31;70000;51.176;-115.568;2024-03-08T12:15:27;-8.94;84.98
69598;SHT31;70000;51.176;-115.568;2024-03-08T12:21:13;-8.97;84.87
69598;SHT31;70000;51.176;-115.568;2024-03-08T12:23:45;-8.95;84.97
69598;SHT31;70000;51.176;-115.568;2024-03-08T12:26:25;-8.92;85.12
69598;SHT31;70000;51.176;-115.568;2024-03-08T12:29:13;-8.91;85.09
69598;SHT31;70000;51.176;-115.568;2024-03-08T12:32:35;-8.92;84.84
69598;SHT31;70000;51.176;-115.568;2024-03-08T12:35:07;-8.97;84.57
69598;SHT31;70000;51.176;-115.568;2024-03-08T12:37:37;-8.96;84.84
69598;SHT31;70000;51.176;-115.568;2024-03-08T12:40:08;-8.95;84.95
69598;SHT31;70000;51.176;-115.568;2024-03-08T12:42:37;-8.98;84.75
69598;SHT31;70000;51.176;-115.568;2024-03-08T12:45:06;-9.04;84.34
69598;SHT31;70000;51.176;-115.568;2024-03-08T12:47:58;-9.09;84.58
69598;SHT31;70000;51.176;-115.568;2024-03-08T12:50:28;-9.07;84.89
69598;SHT31;70000;51.176;-115.568;2024-03-08T12:52:57;-9.04;84.98
69598;SHT31;70000;51.176;-115.568;2024-03-08T12:55:27;-9.01;85.00
69598;SHT31;70000;51.176;-115.568;2024-03-08T12:57:56;-9.00;84.92
69598;SHT31;70000;51.176;-115.568;2024-03-08T13:00:26;-8.98;84.95
69598;SHT31;70000;51.176;-115.568;2024-03-08T13:09:57;-8.89;84.83
69598;SHT31;70000;51.176;-115.568;2024-03-08T13:12:27;-8.90;84.90
69598;SHT31;70000;51.176;-115.568;2024-03-08T13:14:56;-8.89;85.06
69598;SHT31;70000;51.176;-115.568;2024-03-08T13:17:25;-8.87;85.09
69598;SHT31;70000;51.176;-115.568;2024-03-08T13:23:45;-8.77;85.45
69598;SHT31;70000;51.176;-115.568;2024-03-08T13:26:16;-8.76;85.18
69598;SHT31;70000;51.176;-115.568;2024-03-08T13:28:48;-8.72;85.34
69598;SHT31;70000;51.176;-115.568;2024-03-08T13:31:20;-8.69;85.29
69598;SHT31;70000;51.176;-115.568;2024-03-08T13:33:49;-8.67;85.33
69598;SHT31;70000;51.176;-115.568;2024-03-08T13:36:24;-8.68;85.21
69598;SHT31;70000;51.176;-115.568;2024-03-08T13:47:46;-8.75;85.04
69598;SHT31;70000;51.176;-115.568;2024-03-08T13:50:18;-8.78;85.02
69598;SHT31;70000;51.176;-115.568;2024-03-08T13:52:49;-8.81;85.06
69598;SHT31;70000;51.176;-115.568;2024-03-08T13:55:22;-8.81;85.15
69598;SHT31;70000;51.176;-115.568;2024-03-08T13:57:54;-8.81;85.12
69598;SHT31;70000;51.176;-115.568;2024-03-08T14:00:24;-8.82;85.14
69598;SHT31;70000;51.176;-115.568;2024-03-08T14:06:29;-8.74;85.38
69598;SHT31;70000;51.176;-115.568;2024-03-08T14:08:59;-8.72;85.40
69598;SHT31;70000;51.176;-115.568;2024-03-08T14:11:29;-8.71;85.26
69598;SHT31;70000;51.176;-115.568;2024-03-08T14:14:01;-8.74;84.97
69598;SHT31;70000;51.176;-115.568;2024-03-08T14:16:30;-8.84;84.51
69598;SHT31;70000;51.176;-115.568;2024-03-08T14:18:59;-8.90;84.56
69598;SHT31;70000;51.176;-115.568;2024-03-08T14:21:33;-8.91;84.84
69598;SHT31;70000;51.176;-115.568;2024-03-08T14:24:02;-8.94;84.70
69598;SHT31;70000;51.176;-115.568;2024-03-08T14:26:32;-8.94;84.77
69598;SHT31;70000;51.176;-115.568;2024-03-08T14:29:02;-8.92;84.95
69598;SHT31;70000;51.176;-115.568;2024-03-08T14:31:32;-8.91;85.11
69598;SHT31;70000;51.176;-115.568;2024-03-08T14:34:03;-8.90;84.88
69598;SHT31;70000;51.176;-115.568;2024-03-08T14:36:34;-8.90;84.99
69598;SHT31;70000;51.176;-115.568;2024-03-08T14:39:04;-8.90;84.77
69598;SHT31;70000;51.176;-115.568;2024-03-08T14:41:37;-8.92;84.73
69598;SHT31;70000;51.176;-115.568;2024-03-08T14:44:07;-8.90;84.91
69598;SHT31;70000;51.176;-115.568;2024-03-08T14:46:37;-8.91;84.83
69598;SHT31;70000;51.176;-115.568;2024-03-08T14:49:07;-8.90;85.06
69598;SHT31;70000;51.176;-115.568;2024-03-08T14:51:37;-8.90;84.97
69598;SHT31;70000;51.176;-115.568;2024-03-08T14:54:06;-8.88;85.21
69598;SHT31;70000;51.176;-115.568;2024-03-08T14:56:38;-8.88;85.21
69598;SHT31;70000;51.176;-115.568;2024-03-08T14:59:10;-8.86;85.18
69598;SHT31;70000;51.176;-115.568;2024-03-08T15:01:41;-8.83;85.31
69598;SHT31;70000;51.176;-115.568;2024-03-08T15:04:10;-8.81;85.28
69598;SHT31;70000;51.176;-115.568;2024-03-08T15:06:40;-8.78;85.36
69598;SHT31;70000;51.176;-115.568;2024-03-08T15:09:18;-8.74;85.45
69598;SHT31;70000;51.176;-115.568;2024-03-08T15:11:47;-8.69;85.58
69598;SHT31;70000;51.176;-115.568;2024-03-08T15:14:20;-8.67;85.30
69598;SHT31;70000;51.176;-115.568;2024-03-08T15:16:52;-8.64;85.25
69598;SHT31;70000;51.176;-115.568;2024-03-08T15:19:22;-8.58;85.52
69598;SHT31;70000;51.176;-115.568;2024-03-08T15:21:52;-8.57;85.29
69598;SHT31;70000;51.176;-115.568;2024-03-08T15:24:24;-8.59;84.96
69598;SHT31;70000;51.176;-115.568;2024-03-08T15:26:54;-8.58;85.15
69598;SHT31;70000;51.176;-115.568;2024-03-08T15:29:25;-8.59;84.85
69598;SHT31;70000;51.176;-115.568;2024-03-08T15:31:54;-8.59;84.92
69598;SHT31;70000;51.176;-115.568;2024-03-08T15:34:23;-8.57;85.16
69598;SHT31;70000;51.176;-115.568;2024-03-08T15:36:58;-8.56;85.14
69598;SHT31;70000;51.176;-115.568;2024-03-08T15:39:30;-8.54;85.07
69598;SHT31;70000;51.176;-115.568;2024-03-08T15:42:01;-8.53;84.96
69598;SHT31;70000;51.176;-115.568;2024-03-08T15:44:30;-8.50;85.17
69598;SHT31;70000;51.176;-115.568;2024-03-08T15:46:59;-8.47;85.12
69598;SHT31;70000;51.176;-115.568;2024-03-08T15:49:29;-8.43;85.23
69598;SHT31;70000;51.176;-115.568;2024-03-08T15:51:58;-8.38;85.13
69598;SHT31;70000;51.176;-115.568;2024-03-08T15:54:27;-8.31;85.27
69598;SHT31;70000;51.176;-115.568;2024-03-08T15:56:56;-8.23;85.42
69598;SHT31;70000;51.176;-115.568;2024-03-08T15:59:26;-8.15;85.56
69598;SHT31;70000;51.176;-115.568;2024-03-08T16:05:07;-7.96;85.42
69598;SHT31;70000;51.176;-115.568;2024-03-08T16:07:39;-7.87;85.38
69598;SHT31;70000;51.176;-115.568;2024-03-08T16:10:10;-7.80;85.40
69598;SHT31;70000;51.176;-115.568;2024-03-08T16:12:39;-7.72;85.20
69598;SHT31;70000;51.176;-115.568;2024-03-08T16:15:09;-7.64;85.27
69598;SHT31;70000;51.176;-115.568;2024-03-08T16:17:38;-7.55;85.11
69598;SHT31;70000;51.176;-115.568;2024-03-08T16:20:08;-7.45;85.43
69598;SHT31;70000;51.176;-115.568;2024-03-08T16:22:43;-7.34;85.53
69598;SHT31;70000;51.176;-115.568;2024-03-08T16:25:12;-7.25;85.50
69598;SHT31;70000;51.176;-115.568;2024-03-08T16:27:43;-7.15;85.55